Time;durP1;ratioP1;P1;durP2;ratioP2;P2;SDS_P1;SDS_P2;PMS_P1;PMS_P2;Temp;Humidity;BMP_temperature;BMP_pressure;BME280_temperature;BME280_humidity;BME280_pressure;Samples;Min_cycle;Max_cycle;Signal;HPM_P1;HPM_P2
2022/06/06 00:02:05;;;;;;;4.38;1.67;;;;;;;16.88;82.99;100600.47;4954962;29;20054;-68
2022/06/06 00:05:13;;;;;;;5.22;1.60;;;;;;;17.02;82.09;100602.03;4955076;29;20460;-68
2022/06/06 00:08:17;;;;;;;9.75;2.20;;;;;;;16.96;82.56;100603.31;4939834;29;20058;-68
2022/06/06 00:11:20;;;;;;;3.10;2.10;;;;;;;17.12;81.20;100592.41;4954905;29;20571;-68
2022/06/06 00:14:24;;;;;;;6.43;2.10;;;;;;;17.10;81.71;100588.19;4954973;29;20090;-68
2022/06/06 00:17:26;;;;;;;3.22;1.70;;;;;;;17.25;81.84;100583.50;4954632;29;20464;-68
2022/06/06 00:20:31;;;;;;;7.10;2.58;;;;;;;17.28;82.22;100578.81;4954846;29;20053;-67
2022/06/06 00:23:35;;;;;;;4.60;1.95;;;;;;;17.21;82.77;100569.72;4954645;29;20078;-68
2022/06/06 00:26:39;;;;;;;5.07;1.80;;;;;;;17.05;83.41;100579.81;4954625;29;20152;-68
2022/06/06 00:29:43;;;;;;;6.47;1.85;;;;;;;17.07;83.70;100577.88;4954689;29;20058;-68
2022/06/06 00:36:08;;;;;;;6.15;2.58;;;;;;;16.51;86.89;100571.56;4949879;29;20552;-68
2022/06/06 00:39:14;;;;;;;5.43;2.00;;;;;;;16.66;86.65;100571.34;4950121;29;20576;-68
2022/06/06 00:42:27;;;;;;;3.75;1.65;;;;;;;16.70;86.09;100564.88;4951110;29;20580;-68
2022/06/06 00:45:37;;;;;;;3.70;2.20;;;;;;;16.54;87.04;100572.28;4954398;29;20552;-68
2022/06/06 00:48:41;;;;;;;5.00;2.50;;;;;;;16.49;87.00;100562.06;4954109;29;20137;-68
2022/06/06 00:51:44;;;;;;;5.28;2.33;;;;;;;16.33;87.52;100567.66;4954174;29;20412;-67
2022/06/06 00:54:50;;;;;;;6.93;2.60;;;;;;;16.34;87.52;100579.94;4602231;29;10000136;-68
2022/06/06 00:58:00;;;;;;;7.47;2.30;;;;;;;16.46;86.43;100584.28;4950391;29;20359;-68
2022/06/06 01:01:04;;;;;;;4.65;2.20;;;;;;;16.44;86.02;100586.19;4950461;29;20050;-68
2022/06/06 01:04:11;;;;;;;4.82;2.60;;;;;;;15.98;88.03;100578.22;4950397;29;20086;-68
2022/06/06 01:07:15;;;;;;;8.13;2.60;;;;;;;16.14;87.03;100588.47;4950501;28;20050;-68
2022/06/06 01:10:19;;;;;;;6.13;2.50;;;;;;;16.13;87.22;100590.28;4950523;29;20045;-67
2022/06/06 01:13:24;;;;;;;8.90;2.35;;;;;;;16.01;87.04;100588.53;4950368;29;20053;-68
2022/06/06 01:16:51;;;;;;;7.80;2.65;;;;;;;16.11;86.84;100583.44;4950062;29;20130;-67
2022/06/06 01:20:30;;;;;;;7.50;2.95;;;;;;;15.99;86.02;100578.13;4950259;29;20090;-68
2022/06/06 01:23:53;;;;;;;5.25;2.70;;;;;;;16.15;85.38;100584.91;4936564;29;20314;-68
2022/06/06 01:26:56;;;;;;;5.82;2.78;;;;;;;16.08;85.97;100586.28;4950341;29;20086;-67
2022/06/06 01:30:07;;;;;;;9.13;2.90;;;;;;;16.11;86.08;100584.25;4950164;29;20054;-68
2022/06/06 01:33:12;;;;;;;4.93;2.78;;;;;;;16.07;86.06;100581.97;4950111;28;20062;-68
2022/06/06 01:36:15;;;;;;;6.45;2.78;;;;;;;15.94;86.60;100593.44;4950260;29;20058;-68
2022/06/06 01:39:21;;;;;;;6.40;2.80;;;;;;;15.87;87.60;100594.00;4949870;29;20126;-68
2022/06/06 01:42:31;;;;;;;8.23;2.78;;;;;;;15.83;87.51;100595.19;4949717;29;20359;-68
2022/06/06 01:45:41;;;;;;;4.63;3.35;;;;;;;15.86;86.90;100590.53;4950407;29;20086;-68
2022/06/06 01:48:46;;;;;;;8.35;2.90;;;;;;;15.89;86.73;100595.59;4949666;29;20097;-68
2022/06/06 01:52:03;;;;;;;5.82;2.90;;;;;;;15.95;85.73;100589.88;4950004;29;20058;-68
2022/06/06 01:55:06;;;;;;;6.93;3.50;;;;;;;16.02;85.19;100593.72;4930525;29;20190;-68
2022/06/06 01:58:15;;;;;;;5.70;3.28;;;;;;;15.82;85.84;100589.06;4931050;29;20503;-68
2022/06/06 02:01:18;;;;;;;4.72;3.50;;;;;;;15.69;86.32;100596.19;4931091;29;20079;-67
2022/06/06 02:04:21;;;;;;;6.75;3.92;;;;;;;15.44;87.82;100604.97;4932392;29;20049;-68
2022/06/06 02:07:25;;;;;;;13.00;4.28;;;;;;;15.52;87.15;100590.31;4934160;29;20050;-68
2022/06/06 02:10:28;;;;;;;8.05;4.28;;;;;;;15.63;86.31;100593.97;4934540;29;20155;-68
2022/06/06 02:13:31;;;;;;;6.78;4.28;;;;;;;15.74;85.71;100576.44;4933710;29;20143;-68
2022/06/06 02:16:35;;;;;;;7.90;4.45;;;;;;;15.81;85.00;100577.69;4934152;29;20043;-68
2022/06/06 02:19:39;;;;;;;7.40;4.95;;;;;;;15.82;84.92;100570.59;4937974;29;20195;-68
2022/06/06 02:22:43;;;;;;;5.18;4.25;;;;;;;15.80;84.73;100564.63;4937391;29;20051;-68
2022/06/06 02:25:46;;;;;;;6.72;4.40;;;;;;;15.90;84.07;100560.34;4937620;29;20110;-68
2022/06/06 02:28:50;;;;;;;8.93;6.22;;;;;;;15.64;85.08;100558.75;4937566;29;20082;-68
2022/06/06 02:31:54;;;;;;;8.23;5.22;;;;;;;15.71;84.27;100570.56;4937258;29;20050;-68
2022/06/06 02:34:57;;;;;;;6.57;4.82;;;;;;;15.80;83.80;100572.53;4937456;29;20066;-68
2022/06/06 02:38:00;;;;;;;6.55;4.90;;;;;;;15.72;83.92;100573.06;4944700;29;20416;-68
2022/06/06 02:41:09;;;;;;;6.68;4.78;;;;;;;15.69;84.63;100573.28;4956578;29;20560;-68
2022/06/06 02:44:12;;;;;;;6.35;5.10;;;;;;;15.76;84.11;100563.13;4952729;29;20130;-68
2022/06/06 02:47:16;;;;;;;6.93;5.28;;;;;;;15.78;84.49;100559.44;4953110;29;20041;-68
2022/06/06 02:50:23;;;;;;;12.20;5.15;;;;;;;15.89;84.40;100563.94;4956268;29;20528;-68
2022/06/06 02:53:26;;;;;;;8.57;4.65;;;;;;;15.86;84.16;100574.72;4956207;29;20078;-67
2022/06/06 02:56:29;;;;;;;9.10;4.47;;;;;;;15.81;83.91;100571.56;4956139;29;20057;-67
2022/06/06 02:59:34;;;;;;;9.07;4.38;;;;;;;15.79;84.08;100566.41;4956262;29;20054;-67
2022/06/06 03:02:37;;;;;;;8.38;4.68;;;;;;;15.74;84.31;100575.63;4950336;29;20130;-67
2022/06/06 03:06:10;;;;;;;6.60;4.28;;;;;;;15.65;84.37;100566.53;4955918;29;20038;-67
2022/06/06 03:10:07;;;;;;;9.52;5.10;;;;;;;15.53;84.77;100573.53;4952316;29;20046;-67
2022/06/06 03:13:34;;;;;;;9.20;4.13;;;;;;;15.52;84.78;100579.78;4949676;29;20066;-67
2022/06/06 03:20:46;;;;;;;7.20;5.10;;;;;;;15.32;85.04;100575.09;4951513;29;20046;-67
2022/06/06 03:24:06;;;;;;;8.13;4.35;;;;;;;15.27;85.72;100587.75;4948904;29;20042;-67
2022/06/06 03:27:23;;;;;;;8.95;4.80;;;;;;;15.20;85.55;100592.59;4951489;29;20472;-67
2022/06/06 03:30:55;;;;;;;9.98;4.47;;;;;;;15.20;85.38;100602.31;4954311;28;20070;-68
2022/06/06 03:34:47;;;;;;;5.53;4.10;;;;;;;15.22;85.42;100603.88;4955382;28;20050;-68
2022/06/06 03:38:12;;;;;;;14.02;4.45;;;;;;;15.35;84.51;100602.06;4955287;29;20544;-67
2022/06/06 03:41:24;;;;;;;5.57;3.92;;;;;;;15.45;83.97;100604.88;4954899;29;20109;-68
2022/06/06 03:44:59;;;;;;;8.20;4.75;;;;;;;15.52;83.64;100600.84;4953688;29;20097;-68
2022/06/06 03:48:35;;;;;;;7.90;5.00;;;;;;;15.42;84.15;100602.47;4950047;29;20049;-67
2022/06/06 03:52:16;;;;;;;7.47;4.45;;;;;;;15.41;84.48;100608.69;4955289;29;20519;-67
2022/06/06 03:55:37;;;;;;;5.20;3.75;;;;;;;15.23;86.03;100612.63;4952388;29;20050;-67
2022/06/06 03:58:43;;;;;;;7.95;4.45;;;;;;;15.32;86.00;100602.28;4954883;29;20089;-67
2022/06/06 04:01:50;;;;;;;8.85;5.32;;;;;;;15.20;86.69;100597.03;4954816;29;20074;-67
2022/06/06 04:04:55;;;;;;;8.25;4.55;;;;;;;15.07;87.85;100602.31;4954897;29;20046;-68
2022/06/06 04:07:58;;;;;;;7.85;4.53;;;;;;;15.39;86.59;100607.94;4954918;29;20480;-67
2022/06/06 04:11:11;;;;;;;6.00;4.22;;;;;;;15.33;86.57;100609.22;4949661;29;20077;-68
2022/06/06 04:14:45;;;;;;;7.88;4.78;;;;;;;15.34;86.67;100610.91;4954602;29;20425;-68
2022/06/06 04:18:09;;;;;;;8.93;4.95;;;;;;;15.32;86.78;100614.63;4947685;29;20074;-68
2022/06/06 04:21:33;;;;;;;9.73;4.78;;;;;;;15.28;87.31;100623.66;4954811;29;20126;-67
2022/06/06 04:24:52;;;;;;;8.52;4.63;;;;;;;15.37;87.12;100617.75;4954463;29;20042;-67
2022/06/06 04:28:05;;;;;;;6.60;4.78;;;;;;;15.46;86.63;100617.09;4954411;29;20568;-67
2022/06/06 04:31:26;;;;;;;;;;;;;;;15.33;87.67;100613.66;4953999;29;20106;-67
2022/06/06 04:34:47;;;;;;;9.02;5.10;;;;;;;15.32;88.50;100623.34;4954562;29;20354;-67
2022/06/06 04:38:19;;;;;;;10.63;4.70;;;;;;;15.39;88.26;100626.41;4954276;29;20121;-67
2022/06/06 04:42:01;;;;;;;7.65;5.10;;;;;;;15.49;87.66;100635.31;4953974;28;20046;-67
2022/06/06 04:45:29;;;;;;;8.90;5.57;;;;;;;15.49;87.89;100643.22;4913900;29;20107;-68
2022/06/06 04:48:34;;;;;;;7.10;4.70;;;;;;;15.55;88.01;100637.53;4925255;28;20059;-67
2022/06/06 04:51:40;;;;;;;8.68;4.75;;;;;;;15.71;87.47;100639.09;4961517;28;20046;-67
2022/06/06 04:54:45;;;;;;;11.15;5.45;;;;;;;15.61;87.75;100640.69;4955512;28;20420;-67
2022/06/06 04:57:55;;;;;;;5.78;4.47;;;;;;;15.61;87.59;100638.88;4953972;29;20121;-67
2022/06/06 05:01:01;;;;;;;9.13;5.00;;;;;;;15.62;87.17;100640.56;4953976;29;20521;-67
2022/06/06 05:04:04;;;;;;;8.65;4.57;;;;;;;15.71;87.40;100639.09;4949089;29;20069;-68
2022/06/06 05:07:20;;;;;;;10.60;4.90;;;;;;;15.94;86.51;100646.19;4953992;29;20554;-67
2022/06/06 05:10:39;;;;;;;7.20;4.15;;;;;;;16.07;85.92;100653.19;4954014;29;20050;-68
2022/06/06 05:14:01;;;;;;;6.70;5.03;;;;;;;15.90;87.31;100650.00;4953871;29;20074;-68
2022/06/06 05:17:26;;;;;;;9.00;4.65;;;;;;;15.95;87.62;100647.88;4949168;29;20050;-68
2022/06/06 05:21:04;;;;;;;9.18;4.60;;;;;;;15.93;87.37;100659.50;4942005;29;20050;-68
2022/06/06 05:24:26;;;;;;;5.07;3.67;;;;;;;15.97;86.83;100656.50;4951400;29;20079;-68
2022/06/06 05:27:55;;;;;;;8.70;4.50;;;;;;;15.92;86.94;100669.19;4953721;29;20421;-68
2022/06/06 05:31:33;;;;;;;7.80;4.32;;;;;;;16.12;86.24;100672.19;4953565;29;20091;-68
2022/06/06 05:34:41;;;;;;;6.72;4.47;;;;;;;16.08;86.59;100673.34;4953611;29;20098;-68
2022/06/06 05:38:15;;;;;;;8.65;4.18;;;;;;;16.10;86.50;100669.66;4953692;29;20441;-68
2022/06/06 05:41:49;;;;;;;7.40;4.38;;;;;;;16.26;86.69;100662.28;4953712;29;20063;-68
2022/06/06 05:45:27;;;;;;;12.88;5.65;;;;;;;16.16;87.40;100665.72;4953411;29;20054;-68
2022/06/06 05:48:58;;;;;;;7.57;5.45;;;;;;;16.15;87.78;100671.97;4952137;29;20143;-68
2022/06/06 05:52:01;;;;;;;6.47;4.47;;;;;;;16.32;86.47;100660.16;4575033;29;10001264;-68
2022/06/06 05:55:25;;;;;;;5.53;4.90;;;;;;;16.24;86.47;100665.97;4914466;29;20139;-68
2022/06/06 05:59:03;;;;;;;5.90;4.10;;;;;;;16.37;86.15;100673.84;4917554;29;20055;-68
2022/06/06 06:02:22;;;;;;;7.32;4.43;;;;;;;16.21;86.41;100668.88;4898359;29;20459;-68
2022/06/06 06:05:34;;;;;;;8.00;4.38;;;;;;;16.44;85.88;100670.63;4916916;29;20083;-68
2022/06/06 06:08:59;;;;;;;5.85;4.70;;;;;;;16.14;86.49;100663.19;4918983;29;20076;-68
2022/06/06 06:12:18;;;;;;;5.90;4.32;;;;;;;15.97;87.74;100667.06;4914160;29;20164;-68
2022/06/06 06:15:38;;;;;;;6.88;4.60;;;;;;;16.00;88.67;100673.91;4918938;29;20140;-68
2022/06/06 06:18:59;;;;;;;8.93;4.97;;;;;;;16.09;87.92;100673.25;4919093;29;20589;-68
2022/06/06 06:22:05;;;;;;;9.13;5.22;;;;;;;16.27;86.58;100669.25;4946249;29;20054;-68
2022/06/06 06:25:10;;;;;;;6.78;4.18;;;;;;;16.45;85.86;100676.75;4956621;29;20129;-68
2022/06/06 06:28:13;;;;;;;9.30;5.35;;;;;;;16.60;84.92;100685.34;4943446;29;20074;-68
2022/06/06 06:31:32;;;;;;;12.30;5.18;;;;;;;16.80;83.92;100689.97;4937355;29;20082;-68
2022/06/06 06:35:02;;;;;;;7.15;4.30;;;;;;;17.00;83.17;100692.91;4936991;29;20190;-68
2022/06/06 06:38:23;;;;;;;7.47;4.63;;;;;;;16.86;82.43;100697.44;4936816;29;20050;-68
2022/06/06 06:41:48;;;;;;;9.75;5.15;;;;;;;17.07;80.17;100686.19;4937193;29;20102;-68
2022/06/06 06:45:14;;;;;;;7.05;4.75;;;;;;;17.14;77.76;100696.19;4936832;29;20051;-68
2022/06/06 06:48:41;;;;;;;7.20;4.95;;;;;;;17.40;75.49;100696.78;4933762;29;20521;-68
2022/06/06 06:52:08;;;;;;;6.80;4.43;;;;;;;17.48;73.87;100682.97;4936292;29;20103;-67
2022/06/06 06:55:24;;;;;;;6.80;3.70;;;;;;;17.59;74.11;100690.06;4936746;29;20085;-67
2022/06/06 06:58:40;;;;;;;9.70;5.32;;;;;;;17.67;74.76;100692.94;4936419;29;20098;-70
2022/06/06 07:09:51;;;;;;;6.07;3.80;;;;;;;17.82;71.93;100697.03;4954219;29;20632;-67
2022/06/06 07:13:21;;;;;;;7.65;3.53;;;;;;;17.80;72.19;100688.38;4955301;29;20113;-67
2022/06/06 07:16:35;;;;;;;6.53;3.70;;;;;;;17.94;71.32;100691.72;4955213;29;20555;-67
2022/06/06 07:19:54;;;;;;;7.80;4.20;;;;;;;17.99;71.95;100692.19;4955324;29;20081;-67
2022/06/06 07:23:08;;;;;;;6.35;3.85;;;;;;;18.05;70.73;100681.09;4936466;29;20078;-67
2022/06/06 07:26:14;;;;;;;7.28;3.55;;;;;;;17.95;70.98;100673.06;4936733;29;20047;-67
2022/06/06 07:29:20;;;;;;;5.18;3.20;;;;;;;17.92;71.42;100686.56;4936437;29;20042;-67
2022/06/06 07:32:37;;;;;;;10.90;3.28;;;;;;;18.04;70.79;100684.72;4936727;29;20086;-67
2022/06/06 07:35:56;;;;;;;4.82;3.00;;;;;;;18.02;70.58;100691.94;4936579;29;20543;-67
2022/06/06 07:39:16;;;;;;;4.47;3.42;;;;;;;17.72;71.88;100688.13;4936372;29;20466;-67
2022/06/06 07:42:23;;;;;;;5.13;3.20;;;;;;;17.72;71.70;100690.78;4936530;29;20066;-66
2022/06/06 07:45:47;;;;;;;4.63;2.40;;;;;;;17.64;69.34;100687.88;4936561;29;20050;-67
2022/06/06 07:49:24;;;;;;;6.65;2.25;;;;;;;17.79;68.29;100691.97;4936133;29;20099;-68
2022/06/06 07:52:52;;;;;;;4.97;2.20;;;;;;;17.82;66.94;100694.38;4934458;29;20046;-68
2022/06/06 07:56:04;;;;;;;3.78;1.75;;;;;;;17.79;65.53;100694.63;4935912;29;20525;-68
2022/06/06 07:59:08;;;;;;;4.90;2.17;;;;;;;17.83;66.07;100685.47;4931730;29;20579;-69
2022/06/06 08:02:17;;;;;;;4.57;2.13;;;;;;;17.91;65.19;100684.88;4932129;29;20055;-67
2022/06/06 08:05:32;;;;;;;4.25;1.83;;;;;;;17.98;65.54;100685.22;4935795;29;20109;-68
2022/06/06 08:09:17;;;;;;;6.63;1.85;;;;;;;18.10;65.38;100681.59;4936016;29;20062;-68
2022/06/06 08:12:31;;;;;;;4.72;2.17;;;;;;;18.18;65.20;100687.06;4897085;29;20083;-68
2022/06/06 08:15:47;;;;;;;5.78;2.05;;;;;;;18.06;63.84;100678.34;4935018;29;20372;-66
2022/06/06 08:18:51;;;;;;;6.90;1.70;;;;;;;18.07;62.04;100687.13;4935609;29;20110;-66
2022/06/06 08:21:56;;;;;;;4.85;1.63;;;;;;;18.07;60.57;100679.19;4935606;29;20051;-67
2022/06/06 08:25:03;;;;;;;5.22;1.42;;;;;;;18.14;59.94;100675.06;4935526;29;20158;-66
2022/06/06 08:28:07;;;;;;;4.70;1.52;;;;;;;18.12;59.03;100674.34;4930956;29;20420;-68
2022/06/06 08:31:10;;;;;;;3.40;1.48;;;;;;;18.12;59.09;100667.28;4931454;29;20051;-68
2022/06/06 08:34:14;;;;;;;2.88;1.10;;;;;;;18.19;59.32;100667.59;4929513;29;20106;-68
2022/06/06 08:37:36;;;;;;;5.13;1.60;;;;;;;18.26;59.77;100663.50;4936519;29;20512;-69
2022/06/06 08:40:49;;;;;;;3.88;1.60;;;;;;;18.32;59.48;100662.97;4954189;29;20675;-66
2022/06/06 08:44:06;;;;;;;5.35;1.25;;;;;;;18.39;58.57;100651.88;4953713;29;20062;-68
2022/06/06 08:47:48;;;;;;;6.25;1.35;;;;;;;18.56;58.53;100648.66;4938000;29;20434;-68
2022/06/06 08:51:01;;;;;;;3.50;1.37;;;;;;;18.63;57.59;100651.63;4928569;29;20058;-69
2022/06/06 08:54:42;;;;;;;4.45;1.65;;;;;;;18.66;57.22;100638.13;4929787;29;20058;-69
2022/06/06 08:58:10;;;;;;;3.88;1.40;;;;;;;18.91;56.80;100636.91;4927314;29;20070;-68
2022/06/06 09:01:32;;;;;;;3.15;1.60;;;;;;;18.90;56.83;100637.91;4931328;29;20046;-67
2022/06/06 09:05:13;;;;;;;3.20;1.70;;;;;;;18.85;58.38;100642.75;4935097;29;20669;-67
2022/06/06 09:08:40;;;;;;;4.18;1.73;;;;;;;18.94;57.90;100636.66;4931212;29;20050;-69
2022/06/06 09:12:26;;;;;;;4.47;1.20;;;;;;;18.96;55.94;100630.25;4934542;29;20051;-69
2022/06/06 09:16:08;;;;;;;2.95;1.30;;;;;;;19.18;56.27;100631.91;4934443;29;20076;-68
2022/06/06 09:19:40;;;;;;;3.10;1.10;;;;;;;19.26;56.75;100647.97;4934223;29;20055;-68
2022/06/06 09:23:08;;;;;;;3.50;1.25;;;;;;;19.06;55.08;100630.31;4934690;29;20042;-67
2022/06/06 09:26:49;;;;;;;5.45;1.35;;;;;;;19.29;54.61;100644.22;4932666;29;20043;-65
2022/06/06 09:30:27;;;;;;;3.92;1.02;;;;;;;19.46;51.76;100632.13;4953843;29;20041;-66
2022/06/06 09:33:58;;;;;;;5.28;1.35;;;;;;;19.55;52.27;100628.66;4957513;28;20054;-64
2022/06/06 09:37:41;;;;;;;4.78;1.63;;;;;;;19.44;52.07;100637.56;4957346;29;20078;-66
2022/06/06 09:41:18;;;;;;;3.20;0.73;;;;;;;19.45;49.46;100620.69;4945469;29;20074;-65
2022/06/06 09:44:59;;;;;;;4.35;1.05;;;;;;;19.77;49.36;100619.69;4957491;29;20532;-71
2022/06/06 09:48:39;;;;;;;3.42;1.00;;;;;;;20.07;52.06;100616.09;4957205;29;20556;-72
2022/06/06 09:52:20;;;;;;;2.75;0.82;;;;;;;20.08;48.90;100607.13;4957299;29;20050;-70
2022/06/06 10:00:01;;;;;;;5.75;0.55;;;;;;;20.00;45.68;100606.16;4957116;29;20106;-69
2022/06/06 10:03:26;;;;;;;3.20;0.75;;;;;;;20.18;45.97;100607.13;4967318;28;20066;-69
2022/06/06 10:07:07;;;;;;;2.30;0.55;;;;;;;20.19;45.23;100599.00;4957077;29;20054;-70
2022/06/06 10:10:45;;;;;;;1.63;0.73;;;;;;;20.29;45.63;100593.69;4915193;29;20522;-71
2022/06/06 10:14:24;;;;;;;3.63;0.60;;;;;;;20.33;45.72;100604.91;4918577;29;20603;-72
2022/06/06 10:17:34;;;;;;;2.25;0.60;;;;;;;20.37;45.25;100598.31;4922260;29;20159;-67
2022/06/06 10:21:21;;;;;;;3.13;0.55;;;;;;;20.40;44.80;100601.53;4936536;29;20090;-66
2022/06/06 10:24:46;;;;;;;3.65;1.80;;;;;;;20.76;43.07;100606.25;4937391;29;20454;-69
2022/06/06 10:28:13;;;;;;;3.17;0.55;;;;;;;20.84;41.21;100604.53;4937172;29;20046;-70
2022/06/06 10:31:22;;;;;;;2.15;0.50;;;;;;;20.75;41.99;100601.91;4933473;29;20058;-69
2022/06/06 10:34:35;;;;;;;2.70;0.43;;;;;;;20.84;41.60;100593.09;4937594;29;20099;-69
2022/06/06 10:37:59;;;;;;;4.70;0.43;;;;;;;20.64;42.11;100603.75;4937361;29;20058;-70
2022/06/06 10:41:26;;;;;;;2.20;0.80;;;;;;;20.47;43.41;100607.09;4932498;29;20569;-70
2022/06/06 10:44:47;;;;;;;2.72;0.93;;;;;;;20.60;42.98;100602.34;4937315;29;20144;-68
2022/06/06 10:48:12;;;;;;;4.32;0.85;;;;;;;20.33;43.31;100610.22;4937308;29;20058;-66
2022/06/06 10:51:45;;;;;;;1.93;0.43;;;;;;;20.26;44.27;100609.06;4252102;29;10000691;-66
2022/06/06 10:55:08;;;;;;;2.25;0.80;;;;;;;20.35;44.22;100610.88;4933954;29;20070;-66
2022/06/06 10:58:11;;;;;;;2.55;0.68;;;;;;;20.29;44.45;100619.41;4933771;29;20544;-66
2022/06/06 11:01:52;;;;;;;3.45;0.80;;;;;;;20.10;45.15;100620.25;4933646;29;20059;-67
2022/06/06 11:05:24;;;;;;;2.38;0.88;;;;;;;19.94;46.20;100626.97;4933118;29;20129;-67
2022/06/06 11:08:49;;;;;;;2.10;0.63;;;;;;;20.05;45.69;100631.31;4933630;29;20079;-66
2022/06/06 11:12:18;;;;;;;3.30;0.80;;;;;;;20.15;45.53;100624.19;4932990;29;20469;-67
2022/06/06 11:15:27;;;;;;;3.42;0.68;;;;;;;20.07;46.28;100613.44;4933482;29;20062;-67
2022/06/06 11:18:36;;;;;;;6.40;0.80;;;;;;;20.23;45.58;100604.91;4933425;29;20183;-66
2022/06/06 11:22:15;;;;;;;2.75;0.90;;;;;;;20.14;45.18;100606.59;4933455;29;20066;-67
2022/06/06 11:25:24;;;;;;;2.78;0.98;;;;;;;20.31;46.54;100609.50;4932240;29;20421;-67
2022/06/06 11:28:48;;;;;;;3.63;0.60;;;;;;;20.41;45.19;100608.50;4925295;29;20059;-66
2022/06/06 11:32:28;;;;;;;3.33;0.45;;;;;;;20.10;45.67;100605.19;4933016;29;20058;-67
2022/06/06 11:35:43;;;;;;;2.10;0.70;;;;;;;20.14;45.75;100603.94;4933392;29;20126;-66
2022/06/06 11:39:26;;;;;;;1.42;0.50;;;;;;;20.15;46.15;100594.97;4946466;28;20066;-66
2022/06/06 11:43:18;;;;;;;1.25;0.43;;;;;;;20.54;46.36;100580.84;4952417;29;20073;-67
2022/06/06 11:46:43;;;;;;;1.75;0.43;;;;;;;20.93;45.45;100572.75;4952076;29;20046;-65
2022/06/06 11:50:05;;;;;;;3.33;1.17;;;;;;;21.23;45.24;100569.00;4951465;28;20075;-66
2022/06/06 11:53:43;;;;;;;3.28;0.57;;;;;;;21.26;45.00;100568.69;4969107;28;20424;-66
2022/06/06 11:57:18;;;;;;;2.03;0.70;;;;;;;21.56;44.21;100563.06;4971258;28;20049;-66
2022/06/06 12:01:06;;;;;;;2.58;0.50;;;;;;;21.57;45.28;100564.75;4973038;28;20469;-66
2022/06/06 12:04:49;;;;;;;2.92;0.77;;;;;;;21.33;44.92;100583.06;4974354;28;20101;-80
2022/06/06 12:08:23;;;;;;;2.72;0.80;;;;;;;21.28;44.41;100574.69;4962459;28;20041;-71
2022/06/06 12:11:56;;;;;;;2.63;0.85;;;;;;;21.26;44.37;100566.88;4973959;28;20608;-75
2022/06/06 12:14:59;;;;;;;2.95;1.20;;;;;;;21.31;44.75;100561.94;4974111;28;20054;-75
2022/06/06 12:18:21;;;;;;;2.95;0.88;;;;;;;21.14;44.94;100568.88;4974180;28;20464;-76
2022/06/06 12:21:59;;;;;;;1.77;0.70;;;;;;;20.59;46.24;100575.94;4984536;28;20097;-75
2022/06/06 12:25:02;;;;;;;4.13;0.75;;;;;;;20.76;46.11;100575.19;4973932;28;20121;-76
2022/06/06 12:28:16;;;;;;;4.75;0.80;;;;;;;20.58;48.36;100583.09;4973912;28;20515;-77
2022/06/06 12:31:22;;;;;;;2.35;0.90;;;;;;;20.15;48.94;100584.34;4973705;28;20053;-70
2022/06/06 12:34:43;;;;;;;3.35;0.80;;;;;;;19.96;49.58;100587.00;4973749;28;20173;-67
2022/06/06 12:38:06;;;;;;;2.15;0.90;;;;;;;19.67;50.48;100597.59;4972381;28;20117;-68
2022/06/06 12:41:24;;;;;;;4.57;1.02;;;;;;;18.86;52.16;100626.72;4973707;28;20045;-70
2022/06/06 12:44:56;;;;;;;2.38;0.93;;;;;;;18.85;53.24;100613.59;4961422;28;20078;-68
2022/06/06 12:48:33;;;;;;;2.85;0.90;;;;;;;19.00;52.91;100615.78;4973086;28;20085;-66
2022/06/06 12:52:10;;;;;;;2.60;0.82;;;;;;;18.89;53.58;100612.34;4973680;28;20114;-67
2022/06/06 12:58:38;;;;;;;4.30;1.17;;;;;;;18.75;55.99;100617.03;4973420;28;20508;-62
2022/06/06 13:02:03;;;;;;;2.50;0.70;;;;;;;19.24;52.81;100602.22;4973174;28;20150;-68
2022/06/06 13:05:30;;;;;;;1.75;0.70;;;;;;;18.88;53.63;100602.75;4973633;28;20097;-68
2022/06/06 13:08:51;;;;;;;2.28;0.80;;;;;;;18.86;54.71;100608.19;4952764;28;20054;-67
2022/06/06 13:12:29;;;;;;;3.63;1.10;;;;;;;19.49;53.19;100608.00;4953636;29;20190;-68
2022/06/06 13:16:00;;;;;;;2.60;0.65;;;;;;;19.03;54.21;100598.78;4958965;28;20061;-68
2022/06/06 13:19:34;;;;;;;3.72;0.98;;;;;;;18.81;54.94;100597.13;4966010;28;20049;-68
2022/06/06 13:23:05;;;;;;;2.58;0.80;;;;;;;18.79;55.04;100591.97;4955298;28;20066;-70
2022/06/06 13:26:21;;;;;;;2.45;0.63;;;;;;;18.68;55.47;100594.66;4960251;28;20049;-69
2022/06/06 13:30:16;;;;;;;2.30;0.98;;;;;;;18.61;55.09;100587.38;4961081;28;20096;-69
2022/06/06 13:34:19;;;;;;;3.22;1.00;;;;;;;18.59;55.50;100585.69;4952914;28;20062;-69
2022/06/06 13:37:58;;;;;;;2.45;0.70;;;;;;;18.57;55.64;100589.47;4962923;28;20069;-69
2022/06/06 13:41:26;;;;;;;2.90;0.80;;;;;;;18.85;54.16;100585.28;4961664;28;20054;-69
2022/06/06 13:45:04;;;;;;;1.85;0.50;;;;;;;18.88;53.37;100581.53;4963259;28;20042;-69
2022/06/06 13:48:26;;;;;;;2.08;0.55;;;;;;;19.35;51.78;100574.75;4960149;28;20099;-69
2022/06/06 13:51:41;;;;;;;2.22;0.82;;;;;;;20.53;49.22;100574.69;4961664;28;20480;-67
2022/06/06 13:54:44;;;;;;;1.85;0.70;;;;;;;21.08;46.26;100568.63;4962346;28;20405;-68
2022/06/06 13:58:13;;;;;;;2.28;0.52;;;;;;;22.55;43.42;100563.91;4962353;28;20413;-68
2022/06/06 14:01:38;;;;;;;2.28;0.60;;;;;;;23.98;40.60;100552.47;4963024;28;20057;-69
2022/06/06 14:04:58;;;;;;;1.88;0.60;;;;;;;23.46;40.01;100552.69;4965002;28;20089;-71
2022/06/06 14:08:13;;;;;;;3.95;0.70;;;;;;;23.08;40.58;100558.41;4963284;28;20041;-67
2022/06/06 14:11:38;;;;;;;2.00;0.70;;;;;;;23.93;39.23;100555.66;4955818;28;20105;-71
2022/06/06 14:14:43;;;;;;;2.95;0.70;;;;;;;26.23;35.21;100545.69;4965958;28;20153;-73
2022/06/06 14:17:53;;;;;;;3.58;0.80;;;;;;;26.09;34.85;100544.63;4967787;28;20675;-71
2022/06/06 14:20:57;;;;;;;3.00;0.73;;;;;;;27.99;32.89;100529.56;4967452;28;20131;-71
2022/06/06 14:24:14;;;;;;;4.13;0.90;;;;;;;28.61;30.14;100525.25;4965280;28;20145;-71
2022/06/06 14:27:20;;;;;;;6.60;1.00;;;;;;;28.25;31.45;100536.16;4971327;28;20046;-70
2022/06/06 14:30:24;;;;;;;1.77;0.73;;;;;;;28.14;29.73;100516.00;4965521;28;20102;-70
2022/06/06 14:33:35;;;;;;;1.88;0.70;;;;;;;29.03;29.74;100509.13;4964639;28;20085;-71
2022/06/06 14:36:42;;;;;;;2.88;0.82;;;;;;;29.50;29.14;100504.72;4964654;28;20054;-70
2022/06/06 14:39:52;;;;;;;2.90;0.90;;;;;;;30.61;26.63;100504.91;4938031;29;20090;-71
2022/06/06 14:42:55;;;;;;;4.53;0.90;;;;;;;30.77;26.60;100509.88;4937283;29;20059;-70
2022/06/06 14:46:01;;;;;;;1.85;0.80;;;;;;;30.49;26.25;100495.81;4937260;29;20043;-69
2022/06/06 14:49:04;;;;;;;2.90;0.70;;;;;;;31.58;25.82;100500.31;4932374;29;20099;-70
2022/06/06 14:52:15;;;;;;;2.78;0.85;;;;;;;33.34;23.55;100481.81;4932659;29;20046;-69
2022/06/06 14:55:20;;;;;;;;;;;;;;;31.82;24.80;100497.88;4937451;29;20050;-69
2022/06/06 14:58:28;;;;;;;4.78;0.85;;;;;;;29.56;27.61;100503.88;4937311;29;20018;-71
2022/06/06 15:01:31;;;;;;;6.05;0.98;;;;;;;28.57;28.85;100523.16;4940460;29;20097;-71
2022/06/06 15:04:35;;;;;;;1.73;0.70;;;;;;;29.47;28.54;100510.50;4956259;29;20045;-68
2022/06/06 15:08:07;;;;;;;4.63;1.10;;;;;;;30.61;26.21;100498.69;4956238;29;20050;-69
2022/06/06 15:11:16;;;;;;;4.07;1.15;;;;;;;30.08;27.20;100502.28;4952223;29;20098;-66
2022/06/06 15:14:26;;;;;;;2.08;0.70;;;;;;;26.04;32.68;100517.56;4956137;29;20073;-68
2022/06/06 15:17:33;;;;;;;3.45;0.65;;;;;;;26.37;31.94;100511.88;4956009;29;20556;-68
2022/06/06 15:20:38;;;;;;;2.38;0.90;;;;;;;28.93;28.24;100515.69;4956172;29;20139;-68
2022/06/06 15:24:00;;;;;;;2.17;0.60;;;;;;;28.39;29.09;100513.72;4956068;29;20556;-68
2022/06/06 15:27:36;;;;;;;3.20;0.68;;;;;;;29.00;27.86;100506.81;4951061;29;20527;-68
2022/06/06 15:30:52;;;;;;;1.75;0.55;;;;;;;29.32;27.13;100500.72;4955754;29;20512;-69
2022/06/06 15:34:34;;;;;;;5.35;0.85;;;;;;;28.79;28.36;100500.53;4955700;29;20054;-68
2022/06/06 15:37:45;;;;;;;3.13;0.80;;;;;;;28.68;28.47;100487.63;4955461;28;20109;-68
2022/06/06 15:41:25;;;;;;;2.95;0.80;;;;;;;29.45;27.22;100478.38;4955748;29;20058;-68
2022/06/06 15:44:37;;;;;;;2.70;0.63;;;;;;;29.41;27.82;100479.81;4955559;29;20131;-69
2022/06/06 15:47:54;;;;;;;3.75;0.82;;;;;;;29.98;27.13;100472.22;4955384;29;20282;-69